Terminal Aerodrome Forecast
Issued by NWS

Home | Current Version | Previous Version | Text Only | Print | Product List | Glossary On
Versions: 1 2 3 4 5 6 7 8 9 10 11 12 13
000
FTUS42 TJSJ 232322
TAFIST
TAF
TIST 232322Z 2400/2424 11014KT P6SM VCSH FEW026 OVC050
     FM240700 09008KT P6SM VCSH SCT022 SCT050 SCT090
     FM241500 13014KT P6SM SCT025 BKN050 BKN100
     FM242200 10011KT P6SM FEW030 SCT100=

USA.gov is the U.S. government's official web portal to all federal, state and local government web resources and services.